Isla Mujeres, ROO, Mexico
Current Conditions -  °F | °C
As of 9:42 PM on Wednesday 28 Jan 2015 (Local Time) from MMUN Reporting Station
Scattered Clouds Scattered Clouds  
Wind Chill: 64°   Ceiling: Unl
Heat Index: 64°   Visibility: 7mi
Dew Point: 59°   Wind: 0mph
Humidity: 83%   Direction: NA
Pressure: 30.16"   Gusts: NA
Location:  21.2°N, 86.72°W
Report Text: MMUN 290342Z 00000KT 7SM SCT018 18/15 A3016 RMK 8/500
Loading
Personal Weather Stations






























Interactive Weather Map New forecast layout! Learn more

10-Day Weather Forecast

Advertisements
Track Severe Weather on mobile